Time;durP1;ratioP1;P1;durP2;ratioP2;P2;SDS_P1;SDS_P2;PMS_P1;PMS_P2;Temp;Humidity;BMP_temperature;BMP_pressure;BME280_temperature;BME280_humidity;BME280_pressure;Samples;Min_cycle;Max_cycle;Signal;HPM_P1;HPM_P2
2022/07/18 00:02:22;;;;;;;4.28;2.78;;;;;;;;;;4890556;29;20483;-74
2022/07/18 00:04:48;;;;;;;4.43;2.80;;;;;;;;;;4890203;29;20456;-72
2022/07/18 00:07:14;;;;;;;6.70;2.72;;;;;;;;;;4890526;29;20099;-73
2022/07/18 00:09:40;;;;;;;5.97;2.63;;;;;;;;;;4893206;29;20143;-70
2022/07/18 00:12:08;;;;;;;3.60;2.67;;;;;;;;;;4893571;29;20059;-70
2022/07/18 00:14:35;;;;;;;4.30;3.15;;;;;;;;;;4891998;29;20480;-71
2022/07/18 00:17:02;;;;;;;6.03;3.25;;;;;;;;;;4873707;29;20068;-69
2022/07/18 00:19:29;;;;;;;6.75;3.38;;;;;;;;;;4882464;29;20056;-70
2022/07/18 00:21:55;;;;;;;7.80;3.58;;;;;;;;;;4886723;29;20108;-71
2022/07/18 00:24:21;;;;;;;6.13;3.30;;;;;;;;;;4894648;29;20456;-71
2022/07/18 00:26:46;;;;;;;6.30;3.40;;;;;;;;;;4895514;29;20048;-70
2022/07/18 00:29:13;;;;;;;12.27;3.50;;;;;;;;;;4895089;29;20080;-71
2022/07/18 00:31:39;;;;;;;6.45;3.20;;;;;;;;;;4890917;29;20041;-73
2022/07/18 00:34:04;;;;;;;5.18;3.40;;;;;;;;;;4887512;29;20097;-71
2022/07/18 00:36:31;;;;;;;6.07;3.50;;;;;;;;;;4888086;29;20055;-71
2022/07/18 00:38:58;;;;;;;5.97;3.50;;;;;;;;;;4892014;29;20083;-71
2022/07/18 00:41:24;;;;;;;6.13;3.47;;;;;;;;;;4876302;29;20048;-72
2022/07/18 00:43:51;;;;;;;8.50;4.03;;;;;;;;;;4895020;29;20105;-70
2022/07/18 00:46:22;;;;;;;5.05;3.65;;;;;;;;;;4894706;29;20495;-71
2022/07/18 00:48:48;;;;;;;8.20;3.35;;;;;;;;;;4892443;29;20068;-71
2022/07/18 00:51:14;;;;;;;8.20;3.70;;;;;;;;;;4885611;29;20045;-74
2022/07/18 00:53:40;;;;;;;5.13;3.20;;;;;;;;;;4896402;29;20080;-72
2022/07/18 00:56:06;;;;;;;6.45;3.30;;;;;;;;;;4898141;29;20479;-72
2022/07/18 00:58:32;;;;;;;6.80;3.35;;;;;;;;;;4895928;29;20036;-72
2022/07/18 01:03:43;;;;;;;6.35;3.22;;;;;;;;;;4890122;29;20057;-72
2022/07/18 01:06:09;;;;;;;5.22;3.00;;;;;;;;;;4890048;29;20068;-71
2022/07/18 01:08:35;;;;;;;8.18;3.50;;;;;;;;;;4895007;29;20048;-71
2022/07/18 01:11:01;;;;;;;4.97;2.90;;;;;;;;;;4896926;29;20898;-71
2022/07/18 01:13:27;;;;;;;4.28;2.90;;;;;;;;;;4881659;29;20048;-72
2022/07/18 01:15:53;;;;;;;7.13;3.10;;;;;;;;;;4896907;29;20112;-71
2022/07/18 01:18:19;;;;;;;4.50;3.00;;;;;;;;;;4894421;29;20065;-71
2022/07/18 01:20:45;;;;;;;7.38;3.30;;;;;;;;;;4894400;29;20056;-71
2022/07/18 01:23:11;;;;;;;5.82;3.20;;;;;;;;;;4891036;29;20057;-71
2022/07/18 01:25:37;;;;;;;7.57;3.30;;;;;;;;;;4891463;29;20715;-70
2022/07/18 01:28:03;;;;;;;9.75;3.50;;;;;;;;;;4894625;29;20109;-69
2022/07/18 01:30:28;;;;;;;4.43;3.05;;;;;;;;;;4894363;29;20053;-71
2022/07/18 01:32:59;;;;;;;4.28;2.70;;;;;;;;;;4892948;29;20119;-70
2022/07/18 01:35:25;;;;;;;5.50;3.13;;;;;;;;;;4878697;29;20128;-71
2022/07/18 01:37:56;;;;;;;6.43;3.20;;;;;;;;;;4891463;29;20392;-70
2022/07/18 01:40:23;;;;;;;7.82;3.10;;;;;;;;;;4889169;29;20160;-70
2022/07/18 01:42:49;;;;;;;4.70;3.17;;;;;;;;;;4890733;29;20578;-71
2022/07/18 01:45:16;;;;;;;7.43;3.33;;;;;;;;;;4897458;29;20104;-69
2022/07/18 01:47:43;;;;;;;6.57;3.45;;;;;;;;;;4882722;29;20079;-69
2022/07/18 01:50:11;;;;;;;9.40;3.30;;;;;;;;;;4895119;29;20450;-71
2022/07/18 01:52:37;;;;;;;5.55;3.40;;;;;;;;;;4893365;29;20098;-68
2022/07/18 01:55:05;;;;;;;8.57;3.60;;;;;;;;;;4895627;29;20070;-69
2022/07/18 01:57:31;;;;;;;5.70;3.60;;;;;;;;;;4894760;29;20507;-70
2022/07/18 01:59:57;;;;;;;8.25;3.58;;;;;;;;;;4889610;29;20072;-70
2022/07/18 02:02:23;;;;;;;7.05;3.85;;;;;;;;;;4888047;29;20060;-70
2022/07/18 02:05:01;;;;;;;6.05;3.60;;;;;;;;;;4894449;29;20440;-71
2022/07/18 02:07:32;;;;;;;7.55;3.75;;;;;;;;;;4893942;29;20098;-71
2022/07/18 02:09:58;;;;;;;7.97;3.70;;;;;;;;;;4895481;29;20514;-75
2022/07/18 02:12:25;;;;;;;7.28;3.58;;;;;;;;;;4896138;29;20064;-70
2022/07/18 02:14:51;;;;;;;8.68;3.65;;;;;;;;;;4894122;29;20049;-69
2022/07/18 02:17:18;;;;;;;5.80;3.63;;;;;;;;;;4885684;29;20045;-70
2022/07/18 02:19:45;;;;;;;4.63;3.55;;;;;;;;;;4893987;29;20060;-71
2022/07/18 02:22:11;;;;;;;6.95;3.90;;;;;;;;;;4889774;29;20188;-71
2022/07/18 02:24:37;;;;;;;6.63;3.50;;;;;;;;;;4895651;29;20049;-70
2022/07/18 02:27:04;;;;;;;4.30;3.50;;;;;;;;;;4878140;29;20048;-69
2022/07/18 02:29:30;;;;;;;7.72;3.58;;;;;;;;;;4878890;29;20041;-71
2022/07/18 02:31:56;;;;;;;9.73;3.85;;;;;;;;;;4891988;29;20459;-71
2022/07/18 02:34:22;;;;;;;6.03;3.80;;;;;;;;;;4894785;29;20064;-70
2022/07/18 02:36:50;;;;;;;6.00;3.63;;;;;;;;;;4895385;29;20053;-71
2022/07/18 02:39:17;;;;;;;8.80;3.80;;;;;;;;;;4896424;29;20064;-70
2022/07/18 02:41:43;;;;;;;7.50;4.25;;;;;;;;;;4895811;29;20064;-76
2022/07/18 02:44:09;;;;;;;8.63;4.00;;;;;;;;;;4894431;29;20066;-69
2022/07/18 02:46:36;;;;;;;5.43;3.67;;;;;;;;;;4883920;29;20507;-72
2022/07/18 02:49:02;;;;;;;6.20;4.03;;;;;;;;;;4894904;29;20076;-72
2022/07/18 02:51:28;;;;;;;5.00;3.78;;;;;;;;;;4894423;29;20073;-71
2022/07/18 02:53:54;;;;;;;11.25;3.80;;;;;;;;;;4895833;29;20053;-69
2022/07/18 02:56:20;;;;;;;10.40;3.88;;;;;;;;;;4893360;29;20108;-72
2022/07/18 02:58:46;;;;;;;5.53;3.95;;;;;;;;;;4895885;29;20127;-70
2022/07/18 03:01:12;;;;;;;6.97;4.30;;;;;;;;;;4889487;29;20120;-69
2022/07/18 03:03:38;;;;;;;9.73;4.45;;;;;;;;;;4895021;29;20431;-69
2022/07/18 03:06:04;;;;;;;6.45;4.30;;;;;;;;;;4892650;29;20521;-70
2022/07/18 03:08:30;;;;;;;5.55;4.15;;;;;;;;;;4894942;29;20056;-69
2022/07/18 03:10:55;;;;;;;13.88;4.40;;;;;;;;;;4890542;29;20049;-69
2022/07/18 03:13:21;;;;;;;7.53;4.25;;;;;;;;;;4891186;29;20396;-70
2022/07/18 03:15:47;;;;;;;8.15;4.75;;;;;;;;;;4891884;29;20104;-71
2022/07/18 03:18:13;;;;;;;6.47;4.30;;;;;;;;;;4892549;29;20084;-70
2022/07/18 03:20:39;;;;;;;7.40;3.97;;;;;;;;;;4884462;29;20057;-71
2022/07/18 03:23:09;;;;;;;8.75;4.63;;;;;;;;;;4889126;29;20052;-71
2022/07/18 03:25:35;;;;;;;6.88;4.30;;;;;;;;;;4893928;29;20044;-70
2022/07/18 03:28:01;;;;;;;10.80;4.72;;;;;;;;;;4893920;29;20059;-70
2022/07/18 03:30:27;;;;;;;10.10;3.97;;;;;;;;;;4897261;29;20056;-71
2022/07/18 03:32:53;;;;;;;6.53;4.25;;;;;;;;;;4893900;29;20052;-71
2022/07/18 03:35:19;;;;;;;9.65;4.55;;;;;;;;;;4886255;29;20049;-68
2022/07/18 03:37:45;;;;;;;13.00;4.45;;;;;;;;;;4888777;29;20152;-70
2022/07/18 03:40:11;;;;;;;6.93;3.95;;;;;;;;;;4892934;29;20055;-69
2022/07/18 03:42:38;;;;;;;7.32;4.00;;;;;;;;;;4893515;29;20136;-70
2022/07/18 03:45:06;;;;;;;7.85;4.07;;;;;;;;;;4893919;29;20120;-71
2022/07/18 03:47:31;;;;;;;10.68;4.10;;;;;;;;;;4888821;29;20547;-70
2022/07/18 03:49:57;;;;;;;6.57;4.65;;;;;;;;;;4893443;29;20058;-71
2022/07/18 03:52:23;;;;;;;6.78;4.07;;;;;;;;;;4892257;29;20045;-69
2022/07/18 03:54:49;;;;;;;7.13;4.50;;;;;;;;;;4894622;29;20112;-71
2022/07/18 03:57:15;;;;;;;7.47;4.53;;;;;;;;;;4893209;29;20056;-70
2022/07/18 03:59:41;;;;;;;9.13;4.20;;;;;;;;;;4883281;29;20237;-70
2022/07/18 04:02:06;;;;;;;10.55;4.38;;;;;;;;;;4887860;29;20052;-68
2022/07/18 04:04:33;;;;;;;7.38;4.43;;;;;;;;;;4887025;29;20060;-70
2022/07/18 04:07:02;;;;;;;8.82;4.60;;;;;;;;;;4890829;29;20045;-70
2022/07/18 04:09:27;;;;;;;10.63;5.13;;;;;;;;;;4891947;29;20049;-71
2022/07/18 04:11:54;;;;;;;7.85;4.65;;;;;;;;;;4892442;29;20057;-71
2022/07/18 04:14:22;;;;;;;9.30;4.57;;;;;;;;;;4888630;29;20123;-71
2022/07/18 04:16:48;;;;;;;5.63;4.65;;;;;;;;;;4888354;29;20053;-71
2022/07/18 04:19:14;;;;;;;10.27;4.65;;;;;;;;;;4884878;29;20139;-70
2022/07/18 04:21:40;;;;;;;7.18;4.20;;;;;;;;;;4892691;29;20127;-72
2022/07/18 04:24:08;;;;;;;7.45;4.28;;;;;;;;;;4889131;29;20071;-71
2022/07/18 04:26:34;;;;;;;10.75;4.70;;;;;;;;;;4894315;29;20139;-71
2022/07/18 04:29:00;;;;;;;8.05;4.63;;;;;;;;;;4888730;29;20136;-70
2022/07/18 04:31:26;;;;;;;7.45;4.57;;;;;;;;;;4890506;29;20514;-70
2022/07/18 04:33:52;;;;;;;10.02;4.65;;;;;;;;;;4891378;29;20048;-72
2022/07/18 04:36:18;;;;;;;11.60;4.65;;;;;;;;;;4893018;29;20341;-73
2022/07/18 04:38:44;;;;;;;9.52;4.82;;;;;;;;;;4893173;29;20384;-73
2022/07/18 04:41:10;;;;;;;8.65;4.65;;;;;;;;;;4888039;29;20041;-72
2022/07/18 04:43:35;;;;;;;9.52;4.47;;;;;;;;;;4896424;29;20533;-72
2022/07/18 04:46:03;;;;;;;12.73;4.93;;;;;;;;;;4896350;29;20100;-73
2022/07/18 04:48:30;;;;;;;9.15;4.70;;;;;;;;;;4862594;29;20380;-74
2022/07/18 04:50:55;;;;;;;10.15;5.00;;;;;;;;;;4895149;29;20059;-76
2022/07/18 04:53:21;;;;;;;11.43;4.88;;;;;;;;;;4869457;29;20057;-71
2022/07/18 04:55:47;;;;;;;7.28;4.60;;;;;;;;;;4895987;29;20127;-73
2022/07/18 04:58:13;;;;;;;9.88;4.82;;;;;;;;;;4896957;29;20140;-71
2022/07/18 05:00:39;;;;;;;13.05;5.00;;;;;;;;;;4898453;29;20052;-73
2022/07/18 05:03:05;;;;;;;11.10;5.18;;;;;;;;;;4895198;29;20048;-77
2022/07/18 05:05:31;;;;;;;15.32;4.88;;;;;;;;;;4892818;29;20040;-76
2022/07/18 05:07:57;;;;;;;7.90;4.90;;;;;;;;;;4895254;29;20048;-71
2022/07/18 05:10:23;;;;;;;19.90;5.30;;;;;;;;;;4896814;29;20052;-71
2022/07/18 05:12:52;;;;;;;10.80;5.57;;;;;;;;;;4898049;29;20060;-75
2022/07/18 05:15:21;;;;;;;10.43;4.95;;;;;;;;;;4898033;29;20052;-76
2022/07/18 05:17:47;;;;;;;12.65;4.80;;;;;;;;;;4883213;29;21115;-76
2022/07/18 05:20:18;;;;;;;13.00;4.88;;;;;;;;;;4879106;29;20075;-73
2022/07/18 05:22:45;;;;;;;8.40;5.20;;;;;;;;;;4883519;29;20044;-72
2022/07/18 05:25:12;;;;;;;11.48;4.82;;;;;;;;;;4894068;29;20045;-78
2022/07/18 05:27:39;;;;;;;13.73;5.10;;;;;;;;;;4893846;29;20097;-71
2022/07/18 05:30:07;;;;;;;8.13;4.80;;;;;;;;;;4894935;29;20051;-72
2022/07/18 05:32:34;;;;;;;10.90;4.80;;;;;;;;;;4894420;29;20056;-76
2022/07/18 05:35:00;;;;;;;10.38;5.22;;;;;;;;;;4892879;29;20424;-71
2022/07/18 05:37:25;;;;;;;12.50;5.03;;;;;;;;;;4891651;29;20663;-73
2022/07/18 05:39:51;;;;;;;10.10;5.40;;;;;;;;;;4892379;29;20063;-71
2022/07/18 05:42:18;;;;;;;14.35;5.10;;;;;;;;;;4893405;29;20100;-70
2022/07/18 05:44:44;;;;;;;9.45;5.03;;;;;;;;;;4893450;29;20059;-72
2022/07/18 05:47:10;;;;;;;17.80;5.20;;;;;;;;;;4896631;29;20060;-71
2022/07/18 05:49:36;;;;;;;10.40;4.70;;;;;;;;;;4896334;29;20048;-68
2022/07/18 05:52:02;;;;;;;17.50;5.00;;;;;;;;;;4892511;29;20056;-71
2022/07/18 05:54:28;;;;;;;11.38;5.07;;;;;;;;;;4896144;29;20056;-74
2022/07/18 05:56:54;;;;;;;10.48;5.10;;;;;;;;;;4886513;29;20049;-74
2022/07/18 05:59:20;;;;;;;15.02;5.63;;;;;;;;;;4896861;29;20199;-71
2022/07/18 06:01:47;;;;;;;12.45;5.22;;;;;;;;;;4897150;29;20044;-70
2022/07/18 06:04:13;;;;;;;9.38;5.18;;;;;;;;;;4892543;29;20041;-70
2022/07/18 06:06:39;;;;;;;10.23;5.40;;;;;;;;;;4892506;29;20063;-66
2022/07/18 06:09:06;;;;;;;12.00;5.55;;;;;;;;;;4896304;29;20044;-71
2022/07/18 06:11:32;;;;;;;14.45;5.53;;;;;;;;;;4897040;29;20055;-72
2022/07/18 06:13:58;;;;;;;8.90;5.57;;;;;;;;;;4897029;29;20056;-72
2022/07/18 06:16:24;;;;;;;10.57;5.35;;;;;;;;;;4897606;29;20053;-73
2022/07/18 06:18:50;;;;;;;10.68;5.30;;;;;;;;;;4895122;29;20061;-74
2022/07/18 06:21:16;;;;;;;13.95;5.20;;;;;;;;;;4896007;29;20063;-72
2022/07/18 06:23:42;;;;;;;12.70;5.22;;;;;;;;;;4897007;29;20116;-71
2022/07/18 06:26:08;;;;;;;14.00;5.43;;;;;;;;;;4883592;29;20435;-72
2022/07/18 06:28:33;;;;;;;13.40;5.72;;;;;;;;;;4893064;29;20052;-75
2022/07/18 06:31:00;;;;;;;12.20;5.55;;;;;;;;;;4890439;29;20040;-73
2022/07/18 06:33:26;;;;;;;14.00;5.50;;;;;;;;;;4891753;29;20052;-74
2022/07/18 06:35:52;;;;;;;8.48;4.97;;;;;;;;;;4889102;29;20072;-71
2022/07/18 06:38:18;;;;;;;14.82;5.70;;;;;;;;;;4892372;29;20040;-74
2022/07/18 06:40:44;;;;;;;17.83;5.35;;;;;;;;;;4892785;29;20076;-72
2022/07/18 06:43:10;;;;;;;10.68;5.75;;;;;;;;;;4887886;29;20127;-72
2022/07/18 06:45:36;;;;;;;12.35;6.10;;;;;;;;;;4893303;29;20125;-73
2022/07/18 06:48:03;;;;;;;16.85;5.53;;;;;;;;;;4890233;29;20132;-72
2022/07/18 06:50:29;;;;;;;18.98;6.00;;;;;;;;;;4884570;29;20105;-74
2022/07/18 06:52:55;;;;;;;15.57;6.00;;;;;;;;;;4887144;29;20408;-71
2022/07/18 06:55:29;;;;;;;;;;;;;;;;;;4890756;29;20565;-69
2022/07/18 06:57:54;;;;;;;22.58;6.35;;;;;;;;;;4889620;29;19927;-73
2022/07/18 07:00:20;;;;;;;16.00;6.20;;;;;;;;;;4890800;29;20064;-71
2022/07/18 07:02:48;;;;;;;15.65;6.15;;;;;;;;;;4890074;29;20132;-72
2022/07/18 07:05:16;;;;;;;24.00;6.07;;;;;;;;;;4889157;29;20053;-71
2022/07/18 07:07:42;;;;;;;23.65;5.93;;;;;;;;;;4887272;29;20048;-72
2022/07/18 07:10:08;;;;;;;22.60;5.57;;;;;;;;;;4892405;29;20048;-72
2022/07/18 07:12:44;;;;;;;18.85;6.05;;;;;;;;;;4892626;29;20071;-71
2022/07/18 07:15:11;;;;;;;19.42;5.15;;;;;;;;;;4892697;29;20482;-71
2022/07/18 07:17:37;;;;;;;15.65;5.68;;;;;;;;;;4890767;29;20115;-72
2022/07/18 07:20:05;;;;;;;15.65;4.60;;;;;;;;;;4880091;29;20069;-71
2022/07/18 07:22:32;;;;;;;12.00;4.93;;;;;;;;;;4889541;29;20056;-71
2022/07/18 07:24:58;;;;;;;13.23;5.45;;;;;;;;;;4893145;29;20409;-72
2022/07/18 07:27:24;;;;;;;15.90;5.32;;;;;;;;;;4891851;29;20059;-73
2022/07/18 07:29:50;;;;;;;19.33;5.28;;;;;;;;;;4892833;29;20063;-73
2022/07/18 07:32:15;;;;;;;12.98;5.05;;;;;;;;;;4893792;29;20491;-71
2022/07/18 07:34:41;;;;;;;14.10;5.43;;;;;;;;;;4888892;29;20045;-74
2022/07/18 07:37:07;;;;;;;15.27;4.40;;;;;;;;;;4880419;29;20064;-72
2022/07/18 07:39:33;;;;;;;16.23;4.70;;;;;;;;;;4891302;29;20044;-74
2022/07/18 07:41:59;;;;;;;7.90;4.20;;;;;;;;;;4892734;29;20084;-72
2022/07/18 07:44:25;;;;;;;8.65;4.38;;;;;;;;;;4888922;29;20134;-70
2022/07/18 07:46:51;;;;;;;9.63;3.70;;;;;;;;;;4892397;29;20097;-71
2022/07/18 07:49:17;;;;;;;12.82;3.92;;;;;;;;;;4889983;29;20041;-73
2022/07/18 07:51:43;;;;;;;12.15;4.20;;;;;;;;;;4892152;29;20364;-73
2022/07/18 07:54:09;;;;;;;10.82;3.92;;;;;;;;;;4888108;29;20160;-70
2022/07/18 07:56:35;;;;;;;10.40;4.07;;;;;;;;;;4889953;29;20426;-69
2022/07/18 07:59:01;;;;;;;13.43;3.97;;;;;;;;;;4892488;29;20108;-72
2022/07/18 08:01:27;;;;;;;8.82;4.18;;;;;;;;;;4895642;29;20049;-73
2022/07/18 08:03:52;;;;;;;11.75;4.60;;;;;;;;;;4894966;29;20053;-73
2022/07/18 08:06:18;;;;;;;8.55;4.20;;;;;;;;;;4894742;29;20120;-75
2022/07/18 08:08:44;;;;;;;12.02;4.70;;;;;;;;;;4894428;29;20128;-72
2022/07/18 08:11:10;;;;;;;12.32;4.40;;;;;;;;;;4889922;29;20483;-71
2022/07/18 08:13:36;;;;;;;10.07;4.43;;;;;;;;;;4886454;29;20174;-70
2022/07/18 08:16:02;;;;;;;17.45;4.43;;;;;;;;;;4895206;29;20041;-71
2022/07/18 08:18:28;;;;;;;8.23;4.43;;;;;;;;;;4896109;29;20083;-71
2022/07/18 08:20:54;;;;;;;8.68;4.40;;;;;;;;;;4898937;29;20648;-72
2022/07/18 08:23:20;;;;;;;8.77;4.30;;;;;;;;;;4897288;29;20053;-72
2022/07/18 08:25:47;;;;;;;10.82;4.20;;;;;;;;;;4896306;29;20143;-71
2022/07/18 08:28:13;;;;;;;9.20;4.22;;;;;;;;;;4893172;29;20073;-72
2022/07/18 08:30:40;;;;;;;9.88;4.47;;;;;;;;;;4896774;29;20048;-72
2022/07/18 08:33:06;;;;;;;9.25;4.40;;;;;;;;;;4896365;29;20049;-71
2022/07/18 08:35:33;;;;;;;13.73;4.00;;;;;;;;;;4879612;29;20053;-70
2022/07/18 08:38:00;;;;;;;16.15;4.10;;;;;;;;;;4897174;29;20072;-72
2022/07/18 08:40:26;;;;;;;9.48;3.70;;;;;;;;;;4881347;29;20056;-74
2022/07/18 08:42:54;;;;;;;7.72;3.78;;;;;;;;;;4898462;29;20445;-72
2022/07/18 08:45:22;;;;;;;9.38;3.63;;;;;;;;;;4894377;29;20495;-72
2022/07/18 08:47:48;;;;;;;11.45;3.90;;;;;;;;;;4894533;29;20091;-74
2022/07/18 08:50:14;;;;;;;18.75;4.38;;;;;;;;;;4899162;29;20466;-71
2022/07/18 08:52:40;;;;;;;6.82;3.85;;;;;;;;;;4896610;29;20049;-71
2022/07/18 08:55:10;;;;;;;13.95;4.43;;;;;;;;;;4897341;29;20048;-70
2022/07/18 08:57:36;;;;;;;13.55;3.72;;;;;;;;;;4895632;29;20434;-71
2022/07/18 09:00:05;;;;;;;8.18;4.18;;;;;;;;;;4893741;29;20060;-71
2022/07/18 09:02:31;;;;;;;17.52;5.22;;;;;;;;;;4883727;29;20503;-72
2022/07/18 09:05:00;;;;;;;15.00;4.57;;;;;;;;;;4896385;29;20052;-71
2022/07/18 09:07:29;;;;;;;11.40;4.68;;;;;;;;;;4897491;29;20480;-71
2022/07/18 09:09:57;;;;;;;17.20;4.95;;;;;;;;;;4896883;29;20058;-72
2022/07/18 09:12:26;;;;;;;11.82;4.57;;;;;;;;;;4895410;29;20048;-72
2022/07/18 09:14:53;;;;;;;13.57;4.55;;;;;;;;;;4895520;29;20132;-71
2022/07/18 09:17:28;;;;;;;10.40;4.13;;;;;;;;;;4895764;29;20410;-70
2022/07/18 09:20:16;;;;;;;7.75;4.05;;;;;;;;;;4895801;29;20147;-73
2022/07/18 09:22:44;;;;;;;16.25;4.25;;;;;;;;;;4893548;29;20128;-71
2022/07/18 09:25:12;;;;;;;22.40;3.92;;;;;;;;;;4895697;29;20052;-71
2022/07/18 09:27:47;;;;;;;11.02;4.53;;;;;;;;;;4895662;29;20146;-70
2022/07/18 09:30:24;;;;;;;10.38;4.07;;;;;;;;;;4899102;29;20099;-70
2022/07/18 09:33:04;;;;;;;8.32;3.75;;;;;;;;;;4900311;29;20052;-73
2022/07/18 09:35:43;;;;;;;13.10;4.72;;;;;;;;;;4898446;29;20072;-74
2022/07/18 09:38:11;;;;;;;12.30;4.20;;;;;;;;;;4896177;29;20404;-71
2022/07/18 09:40:46;;;;;;;7.07;3.88;;;;;;;;;;4896293;29;20077;-71
2022/07/18 09:43:15;;;;;;;7.50;4.03;;;;;;;;;;4895743;29;20079;-71
2022/07/18 09:45:44;;;;;;;11.02;3.90;;;;;;;;;;4895818;29;20060;-74
2022/07/18 09:48:12;;;;;;;9.80;3.65;;;;;;;;;;4895224;29;20186;-70
2022/07/18 09:50:48;;;;;;;10.35;4.18;;;;;;;;;;4897266;29;20747;-71
2022/07/18 09:53:23;;;;;;;10.90;3.88;;;;;;;;;;4897283;29;20052;-74
2022/07/18 09:55:54;;;;;;;9.57;4.20;;;;;;;;;;4896849;29;20116;-71
2022/07/18 09:58:31;;;;;;;11.90;4.28;;;;;;;;;;4895184;29;20057;-70
2022/07/18 10:01:00;;;;;;;13.45;3.55;;;;;;;;;;4898045;29;20045;-71
2022/07/18 10:03:27;;;;;;;7.60;3.80;;;;;;;;;;4897586;29;20107;-72
2022/07/18 10:05:55;;;;;;;10.77;3.85;;;;;;;;;;4896715;29;20766;-73
2022/07/18 10:08:23;;;;;;;7.05;3.80;;;;;;;;;;4896419;29;20040;-72
2022/07/18 10:10:51;;;;;;;7.90;3.88;;;;;;;;;;4892662;29;20067;-72
2022/07/18 10:13:18;;;;;;;8.55;4.82;;;;;;;;;;4897830;29;20040;-72
2022/07/18 10:15:46;;;;;;;8.65;3.83;;;;;;;;;;4896604;29;20053;-73
2022/07/18 10:18:15;;;;;;;11.40;3.60;;;;;;;;;;4895793;29;20095;-71
2022/07/18 10:20:45;;;;;;;9.82;3.97;;;;;;;;;;4894684;29;20067;-73
2022/07/18 10:23:16;;;;;;;8.80;3.53;;;;;;;;;;4895967;29;20460;-71
2022/07/18 10:25:43;;;;;;;11.30;3.60;;;;;;;;;;4895836;29;20049;-71
2022/07/18 10:28:11;;;;;;;6.60;3.75;;;;;;;;;;4894903;29;20096;-70
2022/07/18 10:30:46;;;;;;;8.75;3.78;;;;;;;;;;4895385;29;20045;-70
2022/07/18 10:33:41;;;;;;;7.25;3.58;;;;;;;;;;4894620;29;20049;-72
2022/07/18 10:36:20;;;;;;;8.40;3.63;;;;;;;;;;4877126;29;20104;-72
2022/07/18 10:39:08;;;;;;;10.48;3.85;;;;;;;;;;4894391;29;20514;-72
2022/07/18 10:41:39;;;;;;;6.47;3.80;;;;;;;;;;4894199;29;20045;-71
2022/07/18 10:44:20;;;;;;;10.52;3.70;;;;;;;;;;4889978;29;20396;-71
2022/07/18 10:47:05;;;;;;;9.57;3.70;;;;;;;;;;4881879;29;20656;-70
2022/07/18 10:50:04;;;;;;;13.15;3.50;;;;;;;;;;4894131;29;20059;-71
2022/07/18 10:52:30;;;;;;;6.88;3.70;;;;;;;;;;4865536;29;20049;-74
2022/07/18 10:55:17;;;;;;;12.90;4.07;;;;;;;;;;4896564;29;20040;-71
2022/07/18 10:57:48;;;;;;;7.13;4.13;;;;;;;;;;4894249;29;20044;-73
2022/07/18 11:00:27;;;;;;;9.32;3.80;;;;;;;;;;4895316;29;20055;-74
2022/07/18 11:03:07;;;;;;;8.75;4.18;;;;;;;;;;4889580;29;20049;-75
2022/07/18 11:05:46;;;;;;;8.75;3.97;;;;;;;;;;4884520;29;20056;-72
2022/07/18 11:08:15;;;;;;;6.85;3.58;;;;;;;;;;4898118;29;20056;-71
2022/07/18 11:10:41;;;;;;;14.15;3.75;;;;;;;;;;4898244;29;20045;-74
2022/07/18 11:13:28;;;;;;;6.38;3.38;;;;;;;;;;4897642;29;20188;-73
2022/07/18 11:16:12;;;;;;;7.55;3.58;;;;;;;;;;4897913;29;20056;-71
2022/07/18 11:18:42;;;;;;;4.40;3.42;;;;;;;;;;4888584;29;20076;-74
2022/07/18 11:21:18;;;;;;;8.65;4.05;;;;;;;;;;4895413;29;20064;-72
2022/07/18 11:23:46;;;;;;;6.07;3.90;;;;;;;;;;4895935;29;20060;-74
2022/07/18 11:26:17;;;;;;;9.65;3.47;;;;;;;;;;4896952;29;20051;-72
2022/07/18 11:28:43;;;;;;;6.50;3.30;;;;;;;;;;4895346;29;20052;-74
2022/07/18 11:31:11;;;;;;;5.38;3.00;;;;;;;;;;4895176;29;20123;-73
2022/07/18 11:33:40;;;;;;;8.77;3.58;;;;;;;;;;4896913;29;20131;-74
2022/07/18 11:36:15;;;;;;;6.53;3.40;;;;;;;;;;4886098;29;20498;-71
2022/07/18 11:38:50;;;;;;;9.30;3.70;;;;;;;;;;4881437;29;20730;-70
2022/07/18 11:41:17;;;;;;;8.10;3.30;;;;;;;;;;4897350;29;20055;-71
2022/07/18 11:43:45;;;;;;;6.85;3.40;;;;;;;;;;4895955;29;20049;-71
2022/07/18 11:46:13;;;;;;;9.18;3.90;;;;;;;;;;4896363;29;20048;-74
2022/07/18 11:48:40;;;;;;;9.38;3.15;;;;;;;;;;4890892;29;20120;-71
2022/07/18 11:51:18;;;;;;;4.10;3.10;;;;;;;;;;4888682;29;20060;-70
2022/07/18 11:53:52;;;;;;;4.88;3.28;;;;;;;;;;4884515;29;20037;-72
2022/07/18 11:56:21;;;;;;;6.22;2.83;;;;;;;;;;4888331;29;20053;-70
2022/07/18 11:58:49;;;;;;;8.68;3.20;;;;;;;;;;4893370;29;20041;-71
2022/07/18 12:01:15;;;;;;;10.30;3.72;;;;;;;;;;4892696;29;20056;-71
2022/07/18 12:03:44;;;;;;;6.70;3.33;;;;;;;;;;4891662;29;20051;-70
2022/07/18 12:06:11;;;;;;;8.73;3.67;;;;;;;;;;4892487;29;20563;-70
2022/07/18 12:08:41;;;;;;;5.47;3.30;;;;;;;;;;4891808;29;20072;-73
2022/07/18 12:11:25;;;;;;;9.02;3.35;;;;;;;;;;4892936;29;20045;-71
2022/07/18 12:13:57;;;;;;;6.78;3.80;;;;;;;;;;4892725;29;20499;-71
2022/07/18 12:16:33;;;;;;;6.43;3.80;;;;;;;;;;4892881;29;20060;-72
2022/07/18 12:19:11;;;;;;;7.90;3.58;;;;;;;;;;4892609;29;20076;-71
2022/07/18 12:22:03;;;;;;;7.15;3.47;;;;;;;;;;4892823;29;20565;-71
2022/07/18 12:24:38;;;;;;;4.82;3.45;;;;;;;;;;4895707;29;20287;-70
2022/07/18 12:27:20;;;;;;;5.95;3.47;;;;;;;;;;4894480;29;20063;-71
2022/07/18 12:30:04;;;;;;;5.30;3.45;;;;;;;;;;4893015;29;20067;-73
2022/07/18 12:32:52;;;;;;;6.80;3.25;;;;;;;;;;4891925;29;20120;-71
2022/07/18 12:35:24;;;;;;;6.30;3.13;;;;;;;;;;4892328;29;20483;-71
2022/07/18 12:38:05;;;;;;;10.20;3.67;;;;;;;;;;4892513;29;20047;-71
2022/07/18 12:40:52;;;;;;;8.27;3.72;;;;;;;;;;4893342;29;20092;-73
2022/07/18 12:43:27;;;;;;;5.70;3.17;;;;;;;;;;4891913;29;20059;-73
2022/07/18 12:45:54;;;;;;;13.23;3.55;;;;;;;;;;4875381;29;20393;-73
2022/07/18 12:48:21;;;;;;;8.50;3.30;;;;;;;;;;4893006;29;20052;-74
2022/07/18 12:51:04;;;;;;;5.63;3.17;;;;;;;;;;4892603;29;20518;-71
2022/07/18 12:53:32;;;;;;;5.50;3.33;;;;;;;;;;4892869;29;20049;-71
2022/07/18 12:55:58;;;;;;;6.15;3.30;;;;;;;;;;4892050;29;20071;-72
2022/07/18 12:58:24;;;;;;;9.57;3.60;;;;;;;;;;4892719;29;20414;-71
2022/07/18 13:00:50;;;;;;;5.38;3.47;;;;;;;;;;4883248;29;20048;-71
2022/07/18 13:03:16;;;;;;;5.43;3.45;;;;;;;;;;4893606;29;20056;-73
2022/07/18 13:05:42;;;;;;;5.97;3.28;;;;;;;;;;4897052;29;20174;-71
2022/07/18 13:08:10;;;;;;;7.75;4.20;;;;;;;;;;4898425;29;20044;-71
2022/07/18 13:10:37;;;;;;;9.35;4.40;;;;;;;;;;4895214;29;20049;-73
2022/07/18 13:13:05;;;;;;;7.07;3.80;;;;;;;;;;4897305;29;20044;-71
2022/07/18 13:15:31;;;;;;;7.05;3.72;;;;;;;;;;4897108;29;20495;-70
2022/07/18 13:17:57;;;;;;;4.75;3.22;;;;;;;;;;4892153;29;20060;-74
2022/07/18 13:20:23;;;;;;;11.15;3.97;;;;;;;;;;4897623;29;20064;-71
2022/07/18 13:22:49;;;;;;;9.10;4.18;;;;;;;;;;4897426;29;20104;-72
2022/07/18 13:25:16;;;;;;;10.20;4.05;;;;;;;;;;4898579;29;20359;-72
2022/07/18 13:27:42;;;;;;;6.93;4.03;;;;;;;;;;4898790;29;20048;-74
2022/07/18 13:30:09;;;;;;;7.50;4.25;;;;;;;;;;4896639;29;20619;-71
2022/07/18 13:32:35;;;;;;;7.75;3.83;;;;;;;;;;4894035;29;20512;-71
2022/07/18 13:35:02;;;;;;;7.85;4.38;;;;;;;;;;4894963;29;20049;-69
2022/07/18 13:37:29;;;;;;;7.65;4.45;;;;;;;;;;4894248;29;20044;-71
2022/07/18 13:39:54;;;;;;;11.30;4.32;;;;;;;;;;4895391;29;20109;-71
2022/07/18 13:42:20;;;;;;;7.53;3.80;;;;;;;;;;4878593;29;20049;-71
2022/07/18 13:44:46;;;;;;;9.80;3.70;;;;;;;;;;4882510;29;20513;-72
2022/07/18 13:47:12;;;;;;;9.48;3.75;;;;;;;;;;4894913;29;20084;-76
2022/07/18 13:49:38;;;;;;;5.88;3.50;;;;;;;;;;4893294;29;20179;-71
2022/07/18 13:52:04;;;;;;;6.25;3.58;;;;;;;;;;4890250;29;20052;-71
2022/07/18 13:54:30;;;;;;;5.57;3.00;;;;;;;;;;4894487;29;20044;-73
2022/07/18 13:56:56;;;;;;;5.28;3.10;;;;;;;;;;4894645;29;20061;-75
2022/07/18 13:59:22;;;;;;;6.25;3.15;;;;;;;;;;4893993;29;20561;-71
2022/07/18 14:01:49;;;;;;;6.68;3.17;;;;;;;;;;4894337;29;20049;-71
2022/07/18 14:04:16;;;;;;;7.40;3.08;;;;;;;;;;4894301;29;20048;-70
2022/07/18 14:06:42;;;;;;;6.78;2.90;;;;;;;;;;4893402;29;20045;-72
2022/07/18 14:09:08;;;;;;;6.35;2.92;;;;;;;;;;4893496;29;20054;-71
2022/07/18 14:11:34;;;;;;;5.15;2.45;;;;;;;;;;4893703;29;20161;-71
2022/07/18 14:14:01;;;;;;;5.35;2.67;;;;;;;;;;4892768;29;20045;-70
2022/07/18 14:16:28;;;;;;;4.25;2.22;;;;;;;;;;4894128;29;20052;-70
2022/07/18 14:18:54;;;;;;;2.50;2.10;;;;;;;;;;4896105;29;20052;-74
2022/07/18 14:21:20;;;;;;;4.88;2.22;;;;;;;;;;4897447;29;20045;-70
2022/07/18 14:23:46;;;;;;;4.47;2.15;;;;;;;;;;4896397;29;20049;-71
2022/07/18 14:26:12;;;;;;;4.68;2.40;;;;;;;;;;4887511;29;20044;-72
2022/07/18 14:28:38;;;;;;;4.82;2.70;;;;;;;;;;4894008;29;20052;-70
2022/07/18 14:31:04;;;;;;;4.90;2.20;;;;;;;;;;4895803;29;20049;-72
2022/07/18 14:33:30;;;;;;;4.13;2.35;;;;;;;;;;4894130;29;20080;-71
2022/07/18 14:35:56;;;;;;;5.40;2.30;;;;;;;;;;4893124;29;20053;-72
2022/07/18 14:38:22;;;;;;;4.68;2.00;;;;;;;;;;4894075;29;20108;-71
2022/07/18 14:40:47;;;;;;;4.43;2.60;;;;;;;;;;4895580;29;20071;-73
2022/07/18 14:43:13;;;;;;;5.72;2.40;;;;;;;;;;4895112;29;20056;-71
2022/07/18 14:45:39;;;;;;;4.97;2.35;;;;;;;;;;4894830;29;20430;-72
2022/07/18 14:48:05;;;;;;;5.80;2.78;;;;;;;;;;4896426;29;20058;-71